Time;durP1;ratioP1;P1;durP2;ratioP2;P2;SDS_P1;SDS_P2;PMS_P1;PMS_P2;Temp;Humidity;BMP_temperature;BMP_pressure;BME280_temperature;BME280_humidity;BME280_pressure;Samples;Min_cycle;Max_cycle;Signal;HPM_P1;HPM_P2
2023/04/03 00:02:07;;;;;;;7.63;5.07;;;4.50;80.90;;;;;;5096146;28;20468;-73
2023/04/03 00:04:32;;;;;;;6.53;5.25;;;4.50;81.10;;;;;;5115652;28;20028;-72
2023/04/03 00:06:58;;;;;;;6.10;5.25;;;4.40;80.80;;;;;;5115821;28;20028;-72
2023/04/03 00:09:23;;;;;;;10.13;5.15;;;4.40;81.20;;;;;;5115631;28;20027;-72
2023/04/03 00:11:49;;;;;;;5.30;4.80;;;4.50;81.10;;;;;;5115823;28;20557;-72
2023/04/03 00:14:14;;;;;;;8.27;5.22;;;4.50;81.10;;;;;;5115630;28;20108;-73
2023/04/03 00:16:40;;;;;;;5.82;5.07;;;4.60;80.90;;;;;;5115554;28;20024;-74
2023/04/03 00:19:06;;;;;;;7.40;5.88;;;4.60;80.40;;;;;;5115549;28;20028;-73
2023/04/03 00:21:31;;;;;;;9.23;6.13;;;4.60;80.10;;;;;;5115722;28;20027;-74
2023/04/03 00:23:57;;;;;;;8.90;5.50;;;4.60;79.80;;;;;;5115573;28;20020;-73
2023/04/03 00:26:22;;;;;;;6.38;5.45;;;4.40;80.00;;;;;;5115485;28;20059;-73
2023/04/03 00:28:48;;;;;;;10.27;6.10;;;4.30;80.50;;;;;;5115307;28;20024;-72
2023/04/03 00:31:17;;;;;;;7.88;6.30;;;4.10;81.40;;;;;;5115414;28;20035;-74
2023/04/03 00:33:42;;;;;;;9.55;6.00;;;4.00;81.60;;;;;;5115350;28;20022;-72
2023/04/03 00:36:09;;;;;;;7.60;5.95;;;4.00;82.10;;;;;;5115243;28;20016;-72
2023/04/03 00:38:35;;;;;;;10.25;6.60;;;4.10;82.00;;;;;;5115196;28;20020;-72
2023/04/03 00:41:00;;;;;;;11.50;6.63;;;4.10;82.00;;;;;;5115349;28;20060;-72
2023/04/03 00:43:27;;;;;;;10.38;6.30;;;4.00;82.00;;;;;;5115006;28;20055;-73
2023/04/03 00:45:55;;;;;;;8.90;6.75;;;4.10;82.10;;;;;;5114831;28;20484;-72
2023/04/03 00:48:25;;;;;;;7.50;6.28;;;4.10;82.20;;;;;;5115052;28;20052;-73
2023/04/03 00:50:52;;;;;;;9.75;6.38;;;4.10;81.40;;;;;;5096720;28;20423;-72
2023/04/03 00:53:21;;;;;;;7.15;5.93;;;4.10;81.70;;;;;;5114847;28;20046;-72
2023/04/03 00:55:48;;;;;;;10.70;6.25;;;4.10;82.30;;;;;;5114877;28;20020;-72
2023/04/03 00:58:16;;;;;;;7.35;5.95;;;4.10;81.40;;;;;;5114850;28;20085;-73
2023/04/03 01:00:47;;;;;;;9.20;6.43;;;4.10;81.70;;;;;;5114773;28;20018;-73
2023/04/03 01:03:13;;;;;;;8.77;6.95;;;4.10;82.00;;;;;;5114804;28;20124;-73
2023/04/03 01:05:40;;;;;;;11.40;6.93;;;4.10;81.90;;;;;;5114630;28;20417;-73
2023/04/03 01:08:06;;;;;;;7.43;6.63;;;4.10;82.10;;;;;;5114602;28;20027;-73
2023/04/03 01:10:32;;;;;;;9.73;6.47;;;4.00;81.40;;;;;;5114715;28;20043;-74
2023/04/03 01:12:59;;;;;;;11.18;6.97;;;4.10;81.30;;;;;;5114089;28;20024;-73
2023/04/03 01:15:30;;;;;;;8.82;6.93;;;4.10;81.00;;;;;;5114951;28;20027;-73
2023/04/03 01:17:57;;;;;;;8.85;6.40;;;4.00;80.90;;;;;;5114538;28;20050;-73
2023/04/03 01:20:47;;;;;;;8.73;6.85;;;4.00;81.30;;;;;;5114583;28;20035;-73
2023/04/03 01:23:20;;;;;;;7.63;5.95;;;4.10;81.10;;;;;;5114396;28;20019;-72
2023/04/03 01:25:49;;;;;;;10.50;6.82;;;4.10;80.80;;;;;;5114148;28;20026;-73
2023/04/03 01:28:36;;;;;;;10.15;6.68;;;4.10;80.40;;;;;;5114039;28;20055;-72
2023/04/03 01:31:16;;;;;;;11.70;6.97;;;4.10;80.40;;;;;;5113638;28;20047;-73
2023/04/03 01:33:43;;;;;;;9.95;6.75;;;4.20;80.10;;;;;;5114175;28;20020;-73
2023/04/03 01:36:12;;;;;;;6.82;6.10;;;4.20;80.00;;;;;;5114149;28;20039;-74
2023/04/03 01:38:38;;;;;;;8.13;6.45;;;4.30;79.70;;;;;;5114172;28;20469;-73
2023/04/03 01:41:04;;;;;;;8.68;6.68;;;4.30;79.40;;;;;;5114045;28;20043;-72
2023/04/03 01:43:29;;;;;;;8.95;6.53;;;4.20;79.00;;;;;;5114006;28;20115;-72
2023/04/03 01:45:55;;;;;;;7.63;5.90;;;4.30;78.90;;;;;;5113742;28;20499;-72
2023/04/03 01:48:21;;;;;;;8.05;6.45;;;4.30;79.00;;;;;;5113879;28;20055;-73
2023/04/03 01:50:48;;;;;;;7.78;6.30;;;4.20;78.70;;;;;;5114186;28;20138;-74
2023/04/03 01:53:14;;;;;;;10.50;6.20;;;4.20;78.90;;;;;;5113855;28;20055;-73
2023/04/03 01:55:39;;;;;;;10.07;6.53;;;4.20;78.80;;;;;;5113759;28;20471;-72
2023/04/03 01:58:05;;;;;;;8.38;6.53;;;4.20;78.70;;;;;;5113797;28;20094;-73
2023/04/03 02:00:30;;;;;;;10.98;7.15;;;4.20;79.00;;;;;;5113705;28;20030;-72
2023/04/03 02:02:56;;;;;;;10.32;7.30;;;4.20;78.80;;;;;;5113633;28;20055;-73
2023/04/03 02:05:22;;;;;;;9.60;6.50;;;4.10;78.70;;;;;;5113525;28;20016;-72
2023/04/03 02:07:47;;;;;;;7.40;6.60;;;4.10;78.80;;;;;;5113668;28;20023;-73
2023/04/03 02:10:13;;;;;;;7.55;6.00;;;4.10;79.00;;;;;;5113662;28;20468;-72
2023/04/03 02:12:39;;;;;;;7.82;6.57;;;4.20;78.80;;;;;;5113641;28;20023;-73
2023/04/03 02:15:10;;;;;;;10.13;6.20;;;4.20;78.50;;;;;;5113534;28;20361;-74
2023/04/03 02:17:35;;;;;;;8.70;5.93;;;4.20;78.60;;;;;;5113568;28;20031;-73
2023/04/03 02:20:01;;;;;;;8.98;6.90;;;4.10;78.70;;;;;;5113575;28;20016;-72
2023/04/03 02:22:27;;;;;;;8.27;7.13;;;4.10;79.00;;;;;;5113426;28;20055;-72
2023/04/03 02:24:53;;;;;;;8.98;6.55;;;4.00;78.90;;;;;;5112612;28;20054;-72
2023/04/03 02:27:18;;;;;;;8.68;6.63;;;3.90;79.00;;;;;;5113317;28;20023;-72
2023/04/03 02:29:44;;;;;;;8.40;6.00;;;3.90;79.20;;;;;;5113518;28;20391;-72
2023/04/03 02:32:09;;;;;;;7.43;5.75;;;4.00;79.20;;;;;;5113579;28;20038;-72
2023/04/03 02:34:35;;;;;;;8.77;6.72;;;3.90;78.70;;;;;;5113480;28;20020;-72
2023/04/03 02:37:00;;;;;;;7.93;6.20;;;3.90;78.70;;;;;;5113258;28;20027;-73
2023/04/03 02:39:26;;;;;;;8.00;5.97;;;3.90;78.50;;;;;;5113349;28;20464;-72
2023/04/03 02:41:51;;;;;;;6.45;5.85;;;3.90;78.70;;;;;;5113463;28;20483;-72
2023/04/03 02:44:17;;;;;;;6.82;5.90;;;4.00;78.50;;;;;;5113316;28;20111;-72
2023/04/03 02:46:43;;;;;;;7.72;5.97;;;4.10;78.00;;;;;;5112965;28;20123;-73
2023/04/03 02:49:08;;;;;;;7.30;5.32;;;4.00;77.70;;;;;;5094965;28;20491;-73
2023/04/03 02:51:34;;;;;;;9.75;6.57;;;3.90;77.90;;;;;;5113401;28;20157;-72
2023/04/03 02:53:59;;;;;;;6.43;5.68;;;4.00;78.00;;;;;;5113205;28;20551;-73
2023/04/03 02:56:26;;;;;;;8.65;6.07;;;4.00;77.70;;;;;;5113171;28;20023;-73
2023/04/03 02:58:52;;;;;;;9.60;6.00;;;4.10;77.70;;;;;;5112977;28;20016;-72
2023/04/03 03:01:18;;;;;;;6.07;5.22;;;4.10;77.40;;;;;;5113229;28;20378;-72
2023/04/03 03:03:43;;;;;;;10.60;6.13;;;4.20;77.20;;;;;;5113187;28;20023;-72
2023/04/03 03:06:12;;;;;;;8.15;6.15;;;4.10;76.80;;;;;;5113106;28;20031;-72
2023/04/03 03:08:37;;;;;;;6.75;6.05;;;4.00;77.20;;;;;;5113145;28;20020;-72
2023/04/03 03:11:04;;;;;;;7.80;6.50;;;3.80;77.70;;;;;;5113122;28;20047;-73
2023/04/03 03:13:30;;;;;;;9.77;6.15;;;3.80;78.10;;;;;;5112859;28;20081;-72
2023/04/03 03:15:56;;;;;;;8.73;6.43;;;3.90;78.30;;;;;;5113043;28;20024;-73
2023/04/03 03:18:22;;;;;;;8.05;6.10;;;3.90;78.20;;;;;;5112987;28;20028;-73
2023/04/03 03:20:54;;;;;;;7.82;5.95;;;3.90;78.10;;;;;;5113240;28;20069;-73
2023/04/03 03:23:22;;;;;;;7.32;5.70;;;4.00;78.20;;;;;;5112949;28;20081;-73
2023/04/03 03:25:47;;;;;;;8.07;5.30;;;4.10;78.10;;;;;;5112993;28;20110;-73
2023/04/03 03:28:13;;;;;;;7.45;5.97;;;4.20;77.90;;;;;;5112907;28;20074;-73
2023/04/03 03:30:39;;;;;;;7.43;5.72;;;4.20;77.60;;;;;;5094458;28;20031;-73
2023/04/03 03:33:04;;;;;;;7.07;5.30;;;4.30;77.50;;;;;;5112856;28;20042;-72
2023/04/03 03:35:30;;;;;;;6.22;5.38;;;4.30;77.40;;;;;;5113551;28;20416;-72
2023/04/03 03:37:56;;;;;;;7.97;6.25;;;4.40;77.30;;;;;;5116486;28;20019;-73
2023/04/03 03:40:21;;;;;;;6.57;5.82;;;4.50;77.00;;;;;;5116666;28;20031;-72
2023/04/03 03:42:47;;;;;;;6.28;5.50;;;4.50;76.50;;;;;;5098112;28;20023;-72
2023/04/03 03:45:12;;;;;;;9.95;6.50;;;4.50;76.40;;;;;;5116282;28;20028;-73
2023/04/03 03:47:38;;;;;;;8.63;6.35;;;4.50;76.10;;;;;;5116118;28;20123;-72
2023/04/03 03:50:04;;;;;;;6.45;5.78;;;4.50;76.40;;;;;;5116304;28;20053;-72
2023/04/03 03:52:30;;;;;;;9.43;6.30;;;4.60;76.40;;;;;;5116176;28;20093;-72
2023/04/03 03:54:55;;;;;;;8.90;6.97;;;4.50;76.00;;;;;;5116138;28;20031;-73
2023/04/03 03:57:21;;;;;;;7.38;5.88;;;4.60;75.60;;;;;;5116110;28;20016;-72
2023/04/03 03:59:48;;;;;;;7.25;5.90;;;4.50;75.60;;;;;;5116090;28;20084;-73
2023/04/03 04:02:14;;;;;;;6.60;5.63;;;4.60;75.70;;;;;;5116098;28;20075;-73
2023/04/03 04:04:40;;;;;;;6.78;5.63;;;4.50;75.30;;;;;;5097760;28;20401;-73
2023/04/03 04:07:05;;;;;;;6.13;5.53;;;4.50;75.40;;;;;;5110542;28;20028;-73
2023/04/03 04:09:31;;;;;;;7.72;5.60;;;4.60;75.60;;;;;;5116048;28;20051;-73
2023/04/03 04:11:56;;;;;;;7.65;5.32;;;4.60;75.50;;;;;;5115899;28;20428;-73
2023/04/03 04:14:22;;;;;;;8.73;5.70;;;4.70;75.80;;;;;;5115758;28;20043;-72
2023/04/03 04:16:48;;;;;;;7.10;5.50;;;4.70;75.80;;;;;;5115785;28;20042;-72
2023/04/03 04:19:14;;;;;;;6.20;5.32;;;4.70;76.50;;;;;;5115770;28;20027;-73
2023/04/03 04:21:41;;;;;;;5.97;5.38;;;4.70;75.70;;;;;;5115789;28;20105;-73
2023/04/03 04:24:07;;;;;;;5.82;5.20;;;4.70;75.00;;;;;;5115679;28;20149;-73
2023/04/03 04:26:32;;;;;;;6.80;5.60;;;4.70;74.00;;;;;;5115526;28;20099;-74
2023/04/03 04:28:58;;;;;;;6.18;5.30;;;4.70;73.00;;;;;;5115416;28;20098;-74
2023/04/03 04:31:24;;;;;;;5.93;5.18;;;4.70;72.30;;;;;;5115692;28;20038;-74
2023/04/03 04:33:49;;;;;;;5.38;4.85;;;4.80;72.60;;;;;;5115576;28;20027;-74
2023/04/03 04:36:15;;;;;;;5.63;5.13;;;4.80;70.30;;;;;;5115630;28;20371;-74
2023/04/03 04:38:41;;;;;;;6.30;4.78;;;4.70;70.20;;;;;;5115330;28;20023;-74
2023/04/03 04:41:07;;;;;;;5.60;4.32;;;4.80;70.60;;;;;;5115317;28;20015;-75
2023/04/03 04:43:33;;;;;;;4.72;4.07;;;4.80;70.60;;;;;;5100793;27;20019;-75
2023/04/03 04:46:07;;;;;;;5.15;3.95;;;4.80;68.90;;;;;;5135503;27;20055;-74
2023/04/03 04:48:34;;;;;;;4.72;4.18;;;4.80;68.40;;;;;;5135192;27;20088;-74
2023/04/03 04:51:00;;;;;;;6.15;4.60;;;4.80;68.00;;;;;;5135712;27;20031;-74
2023/04/03 04:53:25;;;;;;;5.43;4.63;;;4.70;67.50;;;;;;5135657;27;20076;-75
2023/04/03 04:55:52;;;;;;;5.45;4.72;;;4.70;66.50;;;;;;5135467;27;20023;-74
2023/04/03 04:58:18;;;;;;;6.55;4.47;;;4.70;66.30;;;;;;5135511;27;20011;-73
2023/04/03 05:00:43;;;;;;;5.00;3.70;;;4.70;65.60;;;;;;5135390;27;20027;-73
2023/04/03 05:03:09;;;;;;;4.03;3.63;;;4.60;64.90;;;;;;5135410;27;20019;-73
2023/04/03 05:05:35;;;;;;;3.90;3.50;;;4.60;64.20;;;;;;5135315;27;20023;-72
2023/04/03 05:08:01;;;;;;;4.25;3.42;;;4.60;62.10;;;;;;5135271;27;20026;-73
2023/04/03 05:10:26;;;;;;;5.45;3.13;;;4.50;59.80;;;;;;5135112;27;20035;-73
2023/04/03 05:12:52;;;;;;;4.30;3.83;;;4.50;59.10;;;;;;5116670;27;20015;-72
2023/04/03 05:15:17;;;;;;;5.72;3.50;;;4.50;58.50;;;;;;5135052;27;20027;-73
2023/04/03 05:17:43;;;;;;;3.75;3.42;;;4.50;58.20;;;;;;5134915;27;20098;-74
2023/04/03 05:20:09;;;;;;;3.60;3.30;;;4.50;58.10;;;;;;5135126;27;20087;-74
2023/04/03 05:22:35;;;;;;;4.47;3.92;;;4.50;57.70;;;;;;5116143;27;20027;-74
2023/04/03 05:25:00;;;;;;;3.83;3.30;;;4.40;57.50;;;;;;5134712;27;20027;-74
2023/04/03 05:27:28;;;;;;;4.40;3.97;;;4.40;57.90;;;;;;5134193;27;20027;-74
2023/04/03 05:29:54;;;;;;;5.43;3.97;;;4.40;58.20;;;;;;5134128;27;20096;-74
2023/04/03 05:32:20;;;;;;;4.90;3.63;;;4.40;58.30;;;;;;5134419;27;20023;-74
2023/04/03 05:34:45;;;;;;;6.63;4.20;;;4.40;58.40;;;;;;5134402;27;20459;-75
2023/04/03 05:37:11;;;;;;;4.80;4.10;;;4.50;58.70;;;;;;5134701;27;20020;-72
2023/04/03 05:39:40;;;;;;;4.45;4.05;;;4.50;58.90;;;;;;5134643;27;20471;-73
2023/04/03 05:42:05;;;;;;;4.93;4.13;;;4.50;58.90;;;;;;5116005;27;20363;-74
2023/04/03 05:44:31;;;;;;;4.95;4.45;;;4.60;59.40;;;;;;5134461;27;20067;-72
2023/04/03 05:46:56;;;;;;;5.50;4.13;;;4.60;59.40;;;;;;5134141;27;20122;-73
2023/04/03 05:49:22;;;;;;;4.85;3.90;;;4.50;59.40;;;;;;5134321;27;20054;-72
2023/04/03 05:51:48;;;;;;;5.10;3.72;;;4.50;59.70;;;;;;5134447;27;20066;-73
2023/04/03 05:54:23;;;;;;;5.43;4.05;;;4.50;61.10;;;;;;5134276;27;20099;-73
2023/04/03 05:56:49;;;;;;;5.82;4.47;;;4.50;60.50;;;;;;5134305;27;20027;-74
2023/04/03 05:59:15;;;;;;;7.93;6.38;;;4.50;60.30;;;;;;5134376;27;20034;-74
2023/04/03 06:01:41;;;;;;;5.15;4.00;;;4.50;59.70;;;;;;5134289;27;20118;-74
2023/04/03 06:04:08;;;;;;;5.10;4.00;;;4.50;59.00;;;;;;5133966;27;20031;-74
2023/04/03 06:07:03;;;;;;;3.92;3.42;;;4.50;58.50;;;;;;5134143;27;20015;-74
2023/04/03 06:09:29;;;;;;;3.80;3.42;;;4.40;56.30;;;;;;5112210;27;20070;-74
2023/04/03 06:11:58;;;;;;;3.70;3.15;;;4.40;55.40;;;;;;5133963;27;20468;-74
2023/04/03 06:14:24;;;;;;;3.78;3.47;;;4.30;54.80;;;;;;5133981;27;20094;-74
2023/04/03 06:16:49;;;;;;;4.07;3.08;;;4.30;54.70;;;;;;5115457;27;20476;-74
2023/04/03 06:19:15;;;;;;;9.10;5.78;;;4.20;54.40;;;;;;5133952;27;20031;-74
2023/04/03 06:21:40;;;;;;;5.85;4.50;;;4.20;54.70;;;;;;5134532;27;20019;-73
2023/04/03 06:24:07;;;;;;;3.33;2.95;;;4.20;54.70;;;;;;5133946;27;20015;-74
2023/04/03 06:26:33;;;;;;;2.78;2.20;;;4.10;54.30;;;;;;5133786;27;20122;-74
2023/04/03 06:28:59;;;;;;;5.95;3.00;;;4.00;54.30;;;;;;5133961;28;20041;-74
2023/04/03 06:31:25;;;;;;;3.10;2.80;;;4.10;54.20;;;;;;5133601;28;20027;-75
2023/04/03 06:33:50;;;;;;;3.63;3.00;;;4.00;53.90;;;;;;5133726;28;20027;-74
2023/04/03 06:36:21;;;;;;;3.67;2.85;;;4.10;54.20;;;;;;5134102;28;20027;-74
2023/04/03 06:38:48;;;;;;;3.33;2.50;;;4.10;54.40;;;;;;5133443;27;20021;-74
2023/04/03 06:41:16;;;;;;;3.70;2.90;;;4.10;54.50;;;;;;5133597;27;20019;-75
2023/04/03 06:43:42;;;;;;;3.08;2.40;;;4.10;54.40;;;;;;5133505;28;20471;-75
2023/04/03 06:46:18;;;;;;;3.65;2.70;;;4.10;54.40;;;;;;5133530;28;20103;-75
2023/04/03 06:48:44;;;;;;;4.47;2.90;;;4.20;54.20;;;;;;5115587;28;20029;-74
2023/04/03 06:51:20;;;;;;;5.82;3.22;;;4.30;54.20;;;;;;5130868;27;20084;-77
2023/04/03 06:53:47;;;;;;;9.30;4.70;;;4.40;65.70;;;;;;5094787;28;20107;-75
2023/04/03 06:56:12;;;;;;;4.82;3.05;;;4.80;69.80;;;;;;5112887;28;20016;-76
2023/04/03 06:58:39;;;;;;;12.85;4.13;;;4.90;61.60;;;;;;5112810;28;20463;-75
2023/04/03 07:01:04;;;;;;;16.35;4.70;;;5.20;63.40;;;;;;5112715;28;20413;-76
2023/04/03 07:03:30;;;;;;;3.65;2.55;;;5.50;67.40;;;;;;5094926;28;20059;-75
2023/04/03 07:05:55;;;;;;;2.40;2.20;;;5.90;59.30;;;;;;5112935;28;20045;-78
2023/04/03 07:08:23;;;;;;;5.13;3.08;;;6.00;54.30;;;;;;5113948;28;20015;-75
2023/04/03 07:10:48;;;;;;;3.70;2.55;;;6.00;49.30;;;;;;5119442;28;20036;-77
2023/04/03 07:13:14;;;;;;;5.00;2.88;;;6.00;49.90;;;;;;5117226;28;20060;-77
2023/04/03 07:15:40;;;;;;;2.70;2.30;;;5.80;49.90;;;;;;5117155;28;20051;-75
2023/04/03 07:18:05;;;;;;;3.42;2.17;;;5.60;50.30;;;;;;5118737;28;20069;-75
2023/04/03 07:20:31;;;;;;;3.67;2.45;;;5.50;50.90;;;;;;5128306;28;20103;-75
2023/04/03 07:22:57;;;;;;;3.63;2.50;;;5.50;51.00;;;;;;5116591;28;20491;-75
2023/04/03 07:25:22;;;;;;;2.80;2.05;;;5.50;50.30;;;;;;5116467;28;20027;-75
2023/04/03 07:27:49;;;;;;;2.03;1.83;;;5.50;50.60;;;;;;5116527;28;20020;-75
2023/04/03 07:30:15;;;;;;;2.53;2.10;;;5.50;50.60;;;;;;5116278;28;20085;-76
2023/04/03 07:32:40;;;;;;;3.33;2.33;;;5.70;50.70;;;;;;5116336;28;20019;-75
2023/04/03 07:35:06;;;;;;;4.22;1.90;;;5.70;50.90;;;;;;5116471;28;20022;-75
2023/04/03 07:37:32;;;;;;;3.85;2.10;;;5.70;49.90;;;;;;5116418;28;20080;-74
2023/04/03 07:39:58;;;;;;;1.85;1.73;;;5.70;49.40;;;;;;5116237;28;20037;-74
2023/04/03 07:42:27;;;;;;;2.33;1.70;;;5.70;49.90;;;;;;5116192;28;20015;-74
2023/04/03 07:44:53;;;;;;;3.55;2.00;;;5.80;49.80;;;;;;5116053;28;20023;-75
2023/04/03 07:47:20;;;;;;;2.55;1.80;;;5.90;49.70;;;;;;5115977;28;20051;-75
2023/04/03 07:49:46;;;;;;;2.70;2.28;;;5.90;50.30;;;;;;5115799;28;20024;-76
2023/04/03 07:52:11;;;;;;;4.25;2.15;;;6.00;49.40;;;;;;5115933;28;20383;-76
2023/04/03 07:54:37;;;;;;;3.17;2.20;;;6.10;49.80;;;;;;5115905;28;20035;-77
2023/04/03 07:57:03;;;;;;;2.38;2.10;;;6.20;50.10;;;;;;5116069;28;20492;-76
2023/04/03 07:59:29;;;;;;;4.68;2.17;;;6.20;50.10;;;;;;5115821;28;20019;-76
2023/04/03 08:01:55;;;;;;;3.03;2.10;;;6.30;50.10;;;;;;5115841;28;20023;-76
2023/04/03 08:04:20;;;;;;;2.53;1.90;;;6.40;49.90;;;;;;5115651;28;20027;-77
2023/04/03 08:06:46;;;;;;;2.33;1.80;;;6.40;49.60;;;;;;5117659;28;20034;-75
2023/04/03 08:09:11;;;;;;;3.58;2.40;;;6.40;49.40;;;;;;5116539;28;20054;-75
2023/04/03 08:11:39;;;;;;;4.57;2.25;;;6.50;48.70;;;;;;5116043;28;20372;-76
2023/04/03 08:14:05;;;;;;;3.05;2.38;;;6.50;49.00;;;;;;5115658;28;20020;-77
2023/04/03 08:16:30;;;;;;;3.28;2.42;;;6.40;49.10;;;;;;5115675;28;20028;-76
2023/04/03 08:18:56;;;;;;;3.50;2.17;;;6.50;49.20;;;;;;5097332;28;20015;-76
2023/04/03 08:21:22;;;;;;;3.03;2.35;;;6.40;48.80;;;;;;5115170;28;20030;-76
2023/04/03 08:23:50;;;;;;;6.13;2.90;;;6.30;50.20;;;;;;5114549;28;20038;-76
2023/04/03 08:26:18;;;;;;;3.85;2.58;;;6.10;51.40;;;;;;5096824;28;20357;-76
2023/04/03 08:28:44;;;;;;;4.28;3.00;;;5.90;52.30;;;;;;5115474;28;20480;-76
2023/04/03 08:31:13;;;;;;;3.97;2.70;;;5.90;52.80;;;;;;5097044;28;20042;-76
2023/04/03 08:33:39;;;;;;;6.13;3.00;;;5.70;53.40;;;;;;5114985;28;20020;-76
2023/04/03 08:36:14;;;;;;;4.15;2.97;;;5.40;55.50;;;;;;5115095;28;20168;-74
2023/04/03 08:38:40;;;;;;;5.63;2.85;;;5.50;54.90;;;;;;5115287;28;20026;-76
2023/04/03 08:41:11;;;;;;;6.13;4.72;;;5.30;55.40;;;;;;5114916;28;20098;-76
2023/04/03 08:43:57;;;;;;;4.93;2.92;;;5.30;55.90;;;;;;5114934;28;20047;-77
2023/04/03 08:46:28;;;;;;;4.43;2.60;;;5.40;56.00;;;;;;5114692;28;20140;-76
2023/04/03 08:48:57;;;;;;;7.25;3.55;;;5.50;56.30;;;;;;5114901;28;20023;-76
2023/04/03 08:51:24;;;;;;;3.58;2.85;;;5.80;56.10;;;;;;5114620;28;20023;-76
2023/04/03 08:54:04;;;;;;;3.08;2.70;;;6.00;55.10;;;;;;5096515;28;20030;-77
2023/04/03 08:56:33;;;;;;;3.75;3.00;;;6.00;54.10;;;;;;5114662;28;20023;-76
2023/04/03 08:59:07;;;;;;;4.53;2.90;;;6.00;54.20;;;;;;5114666;28;20038;-77
2023/04/03 09:01:34;;;;;;;3.95;2.80;;;6.00;54.30;;;;;;5114494;28;20069;-77
2023/04/03 09:04:01;;;;;;;4.53;3.03;;;6.00;54.30;;;;;;5114492;28;20383;-76
2023/04/03 09:06:32;;;;;;;5.45;2.80;;;6.20;54.20;;;;;;5114689;28;20024;-76
2023/04/03 09:09:10;;;;;;;4.07;2.72;;;6.20;53.30;;;;;;5114446;28;20175;-74
2023/04/03 09:11:54;;;;;;;4.53;3.17;;;6.20;52.90;;;;;;5114321;28;20024;-77
2023/04/03 09:14:58;;;;;;;6.45;3.30;;;6.20;53.40;;;;;;5114313;28;20041;-74
2023/04/03 09:17:29;;;;;;;3.88;3.10;;;6.20;53.50;;;;;;5092273;28;20122;-76
2023/04/03 09:20:23;;;;;;;4.00;2.88;;;6.20;53.90;;;;;;5114426;28;20026;-75
2023/04/03 09:22:52;;;;;;;5.03;3.20;;;6.20;54.20;;;;;;5114273;28;20488;-76
2023/04/03 09:25:25;;;;;;;4.10;3.10;;;6.10;54.90;;;;;;5114105;28;20024;-77
2023/04/03 09:27:52;;;;;;;6.20;3.63;;;6.20;54.80;;;;;;5114191;28;20434;-75
2023/04/03 09:30:21;;;;;;;5.60;3.33;;;6.30;55.00;;;;;;5113750;28;20037;-75
2023/04/03 09:32:49;;;;;;;4.32;3.40;;;6.40;54.50;;;;;;5113769;28;20414;-76
2023/04/03 09:35:50;;;;;;;7.00;3.63;;;6.50;54.10;;;;;;5113613;28;20085;-76
2023/04/03 09:38:20;;;;;;;3.70;2.65;;;6.60;54.00;;;;;;5011696;28;20434;-76
2023/04/03 09:41:13;;;;;;;2.60;2.20;;;6.60;53.40;;;;;;5095328;28;20035;-75
2023/04/03 09:43:38;;;;;;;4.00;2.92;;;6.60;50.90;;;;;;5113691;28;20024;-74
2023/04/03 09:46:39;;;;;;;3.63;2.55;;;6.50;51.00;;;;;;5113520;28;20051;-75
2023/04/03 09:49:06;;;;;;;3.50;2.40;;;6.60;52.10;;;;;;5059043;28;20032;-77
2023/04/03 09:51:32;;;;;;;3.97;2.30;;;6.70;52.90;;;;;;5113610;28;20031;-77
2023/04/03 09:53:58;;;;;;;4.32;2.63;;;6.80;52.60;;;;;;5113542;27;20065;-76
2023/04/03 09:56:28;;;;;;;4.18;2.33;;;6.70;51.20;;;;;;5113718;28;20136;-76
2023/04/03 09:59:03;;;;;;;3.75;2.40;;;6.80;51.00;;;;;;5112391;22;20079;-76
2023/04/03 10:01:35;;;;;;;5.50;2.00;;;6.90;50.60;;;;;;5091909;28;20020;-76
2023/04/03 10:04:18;;;;;;;3.85;2.20;;;7.00;50.10;;;;;;5091250;28;20024;-77
2023/04/03 10:06:47;;;;;;;4.22;2.35;;;7.10;49.10;;;;;;5093234;28;20452;-76
2023/04/03 10:09:30;;;;;;;3.85;2.45;;;7.20;49.40;;;;;;5091757;28;20031;-76
2023/04/03 10:12:06;;;;;;;3.10;2.35;;;7.20;49.90;;;;;;5092702;28;20028;-76
2023/04/03 10:14:41;;;;;;;3.20;2.10;;;7.20;50.40;;;;;;5091815;28;20480;-76
2023/04/03 10:17:34;;;;;;;3.30;2.38;;;7.20;48.80;;;;;;5091564;28;20361;-75
2023/04/03 10:20:24;;;;;;;2.33;1.83;;;7.30;48.60;;;;;;5061599;28;20035;-76
2023/04/03 10:23:00;;;;;;;3.55;2.47;;;7.40;48.70;;;;;;5091584;28;20032;-75
2023/04/03 10:26:04;;;;;;;2.78;1.98;;;7.40;48.30;;;;;;5091474;28;20020;-77
2023/04/03 10:28:42;;;;;;;2.47;2.10;;;7.50;48.10;;;;;;5051629;28;20076;-77
2023/04/03 10:31:39;;;;;;;5.13;2.08;;;7.50;47.30;;;;;;5091382;28;20067;-77
2023/04/03 10:34:06;;;;;;;3.90;2.10;;;7.50;46.60;;;;;;5091724;28;20471;-77
2023/04/03 10:36:45;;;;;;;3.67;2.40;;;7.40;46.00;;;;;;5091889;28;20032;-77
2023/04/03 10:39:49;;;;;;;5.25;2.78;;;7.30;47.30;;;;;;5524851;22;20496;-77
2023/04/03 10:42:58;;;;;;;4.63;2.75;;;7.10;49.60;;;;;;5067795;28;20044;-77
2023/04/03 10:45:42;;;;;;;5.78;2.92;;;7.10;51.60;;;;;;5091728;28;20035;-76
2023/04/03 10:48:13;;;;;;;5.60;3.10;;;7.10;52.00;;;;;;5078034;28;20030;-76
2023/04/03 10:51:12;;;;;;;3.65;2.83;;;7.20;51.70;;;;;;5095145;28;20032;-76
2023/04/03 10:54:12;;;;;;;3.55;2.40;;;7.30;51.60;;;;;;5094826;28;20032;-77
2023/04/03 10:56:41;;;;;;;5.03;3.25;;;7.40;51.10;;;;;;5094430;28;20096;-74
2023/04/03 10:59:39;;;;;;;2.50;2.20;;;7.40;50.70;;;;;;5094465;28;20039;-75
2023/04/03 11:02:37;;;;;;;6.15;2.78;;;7.40;46.10;;;;;;5039991;28;20060;-75
2023/04/03 11:05:22;;;;;;;2.97;2.30;;;7.40;45.80;;;;;;5094554;28;20024;-77
2023/04/03 11:07:50;;;;;;;;;;;7.40;45.50;;;;;;5095461;28;20380;-77
2023/04/03 11:10:44;;;;;;;4.95;2.85;;;7.50;46.40;;;;;;5095283;28;19916;-78
2023/04/03 11:13:18;;;;;;;6.93;3.17;;;7.50;48.70;;;;;;5094983;28;20020;-80
2023/04/03 11:15:46;;;;;;;4.53;2.55;;;7.40;49.80;;;;;;5094849;28;20032;-80
2023/04/03 11:18:31;;;;;;;8.35;5.00;;;7.40;50.40;;;;;;5094658;28;20477;-75
2023/04/03 11:21:19;;;;;;;6.80;3.50;;;7.30;50.40;;;;;;5062927;28;20039;-76
2023/04/03 11:23:46;;;;;;;9.05;3.35;;;7.30;51.20;;;;;;5095419;28;20023;-77
2023/04/03 11:26:15;;;;;;;7.30;3.10;;;7.60;63.00;;;;;;5094928;28;20039;-80
2023/04/03 11:28:42;;;;;;;6.40;2.70;;;7.90;55.20;;;;;;5094818;28;20031;-80
2023/04/03 11:31:16;;;;;;;3.90;2.70;;;8.30;60.90;;;;;;5094456;28;20036;-80
2023/04/03 11:34:22;;;;;;;7.63;3.03;;;8.50;55.40;;;;;;5094890;28;20034;-82
2023/04/03 11:36:51;;;;;;;6.20;3.35;;;8.60;54.10;;;;;;5013630;28;20032;-80
2023/04/03 11:39:26;;;;;;;6.97;3.00;;;8.70;52.00;;;;;;5094930;28;20040;-76
2023/04/03 11:41:52;;;;;;;10.70;6.78;;;8.90;55.10;;;;;;5094243;28;20032;-77
2023/04/03 11:44:37;;;;;;;4.03;2.40;;;9.30;54.50;;;;;;5094534;28;20024;-77
2023/04/03 11:47:11;;;;;;;4.53;2.97;;;9.50;47.10;;;;;;5094585;28;20028;-77
2023/04/03 11:49:53;;;;;;;4.63;3.03;;;9.10;46.00;;;;;;5095826;28;20051;-77
2023/04/03 11:52:37;;;;;;;4.03;2.63;;;8.60;46.60;;;;;;5094246;28;20073;-76
2023/04/03 11:55:26;;;;;;;4.07;2.70;;;8.20;47.60;;;;;;5094458;28;20166;-77
2023/04/03 11:57:57;;;;;;;3.80;2.75;;;7.80;47.80;;;;;;5093750;28;20427;-76
2023/04/03 12:00:51;;;;;;;6.53;2.65;;;7.50;49.00;;;;;;5094145;28;20110;-75
2023/04/03 12:03:41;;;;;;;3.95;2.72;;;7.30;49.30;;;;;;5094407;28;20110;-75
2023/04/03 12:06:09;;;;;;;4.38;3.00;;;6.80;50.30;;;;;;5048534;28;20025;-75
2023/04/03 12:08:41;;;;;;;4.20;2.90;;;6.70;51.10;;;;;;5094242;28;20112;-75
2023/04/03 12:11:12;;;;;;;3.90;2.60;;;6.60;51.10;;;;;;5093874;28;20028;-74
2023/04/03 12:13:56;;;;;;;5.47;2.85;;;6.40;52.40;;;;;;5093874;28;20024;-77
2023/04/03 12:16:37;;;;;;;4.07;3.15;;;6.50;53.00;;;;;;5093973;28;20058;-75
2023/04/03 12:19:21;;;;;;;6.72;3.13;;;6.70;53.00;;;;;;5093863;28;20046;-75
2023/04/03 12:21:47;;;;;;;2.72;2.10;;;6.80;52.10;;;;;;5093810;28;20024;-76
2023/04/03 12:24:16;;;;;;;3.03;2.15;;;6.90;51.20;;;;;;5093694;28;20499;-76
2023/04/03 12:26:56;;;;;;;4.18;2.75;;;6.90;50.30;;;;;;5094198;28;20131;-75
2023/04/03 12:29:34;;;;;;;2.92;2.35;;;6.90;49.30;;;;;;5093788;28;20381;-75
2023/04/03 12:32:41;;;;;;;4.15;2.67;;;6.90;48.30;;;;;;5093544;28;20034;-75
2023/04/03 12:35:21;;;;;;;3.53;2.38;;;6.90;49.00;;;;;;5093763;28;20024;-75
2023/04/03 12:38:11;;;;;;;4.45;2.70;;;6.90;49.60;;;;;;5093391;28;20028;-75
2023/04/03 12:41:15;;;;;;;5.80;3.55;;;6.90;51.10;;;;;;5093062;28;20044;-76
2023/04/03 12:43:50;;;;;;;9.45;2.88;;;7.00;50.40;;;;;;5093462;28;20031;-75
2023/04/03 12:46:20;;;;;;;4.20;2.83;;;6.90;49.80;;;;;;5093432;28;20024;-75
2023/04/03 12:48:54;;;;;;;7.55;3.13;;;7.00;49.60;;;;;;5092896;28;20058;-76
2023/04/03 12:51:29;;;;;;;3.58;2.70;;;7.10;49.40;;;;;;5094392;28;20036;-76
2023/04/03 12:54:03;;;;;;;6.75;3.33;;;7.30;49.30;;;;;;5093578;28;20024;-76
2023/04/03 12:56:31;;;;;;;11.38;3.60;;;7.40;48.60;;;;;;5097695;28;20028;-75
2023/04/03 12:59:19;;;;;;;4.55;2.60;;;7.40;48.60;;;;;;5094304;28;20024;-75
2023/04/03 13:02:00;;;;;;;5.78;2.60;;;7.50;48.70;;;;;;5094018;28;20110;-75
2023/04/03 13:04:28;;;;;;;5.22;3.00;;;7.50;48.50;;;;;;5092504;28;20028;-75
2023/04/03 13:06:54;;;;;;;4.68;2.53;;;7.40;48.60;;;;;;5093345;28;20110;-75
2023/04/03 13:09:32;;;;;;;4.00;2.15;;;7.40;47.90;;;;;;5092242;28;20016;-75
2023/04/03 13:12:10;;;;;;;3.35;2.17;;;7.50;46.90;;;;;;5093144;28;20027;-75
2023/04/03 13:14:36;;;;;;;3.30;2.15;;;7.60;46.10;;;;;;5092930;28;20024;-75
2023/04/03 13:17:16;;;;;;;3.30;1.85;;;7.60;43.60;;;;;;5092799;28;20194;-75